BLA weather

Public forecast

Using degrees Celsius for public forecast. Weather courtesy of forecast.io.

Current aviation weather report (METAR) for General José Antonio Anzoategui International Airport

Report is more than 6 hours old.

Retrieved 2020/07/18 17:02 UTC (26 days ago):

SVBC 181702Z AUTO 00000KT NCD 0/// Q////

Aviation forecast (TAF) for General José Antonio Anzoategui International Airport

Retrieved 2020/08/13 12:03 UTC (1 hour ago):

TAF SVBC 131000Z 1312/1412 11006KT 9999 SCT070 TX35/1318Z TN24/1308Z TEMPO 1312/1316 05008KT 9000 -DZ BKN016